Aviation Digital Data Service (ADDS)

Output produced by METARs form (0254 UTC 22 April 2019)
found at http://www.aviationweather.gov/metar/data/
 
Forecast for: ROAH (NAHA (CIV/JASDF), JP)
Text: TAF ROAH 212305Z 2200/2306 12010KT 9999 FEW015 BKN025
Forecast period: 0000 UTC 22 April 2019 to 0600 UTC 23 April 2019
Forecast type: FROM: standard forecast or significant change
Winds: from the ESE (120 degrees) at 12 MPH (10 knots; 5.1 m/s)
Visibility: 6 or more miles 10+ km)
Ceiling: 2500 feet AGL
Clouds: few clouds at 1500 feet AGL
broken clouds at 2500 feet AGL
Weather: no significant weather forecast for this period